createdAt,value
2023-02-16T00:01:33.255Z,100.00
2023-02-16T00:04:00.024Z,100.00
2023-02-16T00:06:27.181Z,100.00
2023-02-16T00:08:54.484Z,100.00
2023-02-16T00:12:03.734Z,100.00
2023-02-16T00:14:30.200Z,100.00
2023-02-16T00:16:57.394Z,100.00
2023-02-16T00:19:27.101Z,100.00
2023-02-16T00:21:57.817Z,100.00
2023-02-16T00:24:24.628Z,100.00
2023-02-16T00:26:51.172Z,100.00
2023-02-16T00:29:29.522Z,100.00
2023-02-16T00:31:56.538Z,100.00
2023-02-16T00:34:25.984Z,100.00
2023-02-16T00:36:52.451Z,100.00
2023-02-16T00:39:18.921Z,100.00
2023-02-16T00:41:51.265Z,100.00
2023-02-16T00:44:18.258Z,100.00
2023-02-16T00:46:45.111Z,100.00
2023-02-16T00:49:15.733Z,100.00
2023-02-16T00:51:42.542Z,100.00
2023-02-16T00:54:09.087Z,100.00
2023-02-16T00:56:35.564Z,100.00
2023-02-16T00:59:02.395Z,100.00
2023-02-16T01:01:32.244Z,100.00
2023-02-16T01:04:02.309Z,100.00
2023-02-16T01:06:47.432Z,100.00
2023-02-16T01:09:34.092Z,100.00
2023-02-16T01:12:00.688Z,100.00
2023-02-16T01:14:27.164Z,100.00
2023-02-16T01:16:53.637Z,100.00
2023-02-16T01:19:20.092Z,100.00
2023-02-16T01:21:46.564Z,100.00
2023-02-16T01:24:13.056Z,100.00
2023-02-16T01:26:41.817Z,100.00
2023-02-16T01:29:13.467Z,100.00
2023-02-16T01:31:40.096Z,100.00
2023-02-16T01:34:06.712Z,100.00
2023-02-16T01:36:34.749Z,100.00
2023-02-16T01:39:01.428Z,100.00
2023-02-16T01:42:05.924Z,100.00
2023-02-16T01:44:36.300Z,100.00
2023-02-16T01:47:05.601Z,100.00
2023-02-16T01:49:32.068Z,100.00
2023-02-16T01:52:15.617Z,100.00
2023-02-16T01:54:52.302Z,100.00
2023-02-16T01:57:32.506Z,100.00
2023-02-16T01:59:58.764Z,100.00
2023-02-16T02:02:26.567Z,100.00
2023-02-16T02:05:13.291Z,100.00
2023-02-16T02:07:42.549Z,100.00
2023-02-16T02:10:19.882Z,100.00
2023-02-16T02:12:51.219Z,100.00
2023-02-16T02:15:18.118Z,100.00
2023-02-16T02:17:44.582Z,100.00
2023-02-16T02:20:21.152Z,100.00
2023-02-16T02:23:30.200Z,100.00
2023-02-16T02:26:34.486Z,100.00
2023-02-16T02:29:16.182Z,100.00
2023-02-16T02:32:00.982Z,100.00
2023-02-16T02:34:46.159Z,100.00
2023-02-16T02:37:21.384Z,100.00
2023-02-16T02:39:54.905Z,100.00
2023-02-16T02:42:31.424Z,100.00
2023-02-16T02:45:04.460Z,100.00
2023-02-16T02:47:44.203Z,100.00
2023-02-16T02:50:37.030Z,100.00
2023-02-16T02:53:09.807Z,100.00
2023-02-16T02:55:55.598Z,100.00
2023-02-16T02:58:40.725Z,100.00
2023-02-16T03:01:07.663Z,100.00
2023-02-16T03:03:36.478Z,100.00
2023-02-16T03:06:10.024Z,100.00
2023-02-16T03:08:39.365Z,100.00
2023-02-16T03:11:36.166Z,100.00
2023-02-16T03:14:05.492Z,100.00
2023-02-16T03:16:35.132Z,100.00
2023-02-16T03:19:20.183Z,100.00
2023-02-16T03:22:05.104Z,100.00
2023-02-16T03:24:50.666Z,100.00
2023-02-16T03:27:47.462Z,100.00
2023-02-16T03:30:14.038Z,100.00
2023-02-16T03:32:40.561Z,100.00
2023-02-16T03:35:07.257Z,100.00
2023-02-16T03:37:33.758Z,100.00
2023-02-16T03:40:18.943Z,100.00
2023-02-16T03:42:50.142Z,100.00
2023-02-16T03:45:17.182Z,100.00
2023-02-16T03:47:43.659Z,100.00
2023-02-16T03:50:10.199Z,100.00
2023-02-16T03:52:36.665Z,100.00
2023-02-16T03:55:03.238Z,100.00
2023-02-16T03:57:29.723Z,100.00
2023-02-16T03:59:58.977Z,100.00
2023-02-16T04:02:28.092Z,100.00
2023-02-16T04:04:54.620Z,100.00
2023-02-16T04:07:21.077Z,100.00
2023-02-16T04:09:47.559Z,100.00
2023-02-16T04:12:32.774Z,100.00
2023-02-16T04:14:59.292Z,100.00
2023-02-16T04:17:25.818Z,100.00
2023-02-16T04:19:52.303Z,100.00
2023-02-16T04:22:19.011Z,100.00
2023-02-16T04:24:45.508Z,100.00
2023-02-16T04:27:11.983Z,100.00
2023-02-16T04:29:38.483Z,100.00
2023-02-16T04:32:05.855Z,100.00
2023-02-16T04:34:32.391Z,100.00
2023-02-16T04:36:58.908Z,100.00
2023-02-16T04:39:25.380Z,100.00
2023-02-16T04:41:51.841Z,100.00
2023-02-16T04:44:18.313Z,100.00
2023-02-16T04:46:44.833Z,100.00
2023-02-16T04:49:11.313Z,100.00
2023-02-16T04:51:39.885Z,100.00
2023-02-16T04:54:07.061Z,100.00
2023-02-16T04:56:33.524Z,100.00
2023-02-16T04:59:00.002Z,100.00
2023-02-16T05:01:27.237Z,100.00
2023-02-16T05:03:53.962Z,100.00
2023-02-16T05:06:20.609Z,100.00
2023-02-16T05:08:47.092Z,100.00
2023-02-16T05:11:32.169Z,100.00
2023-02-16T05:14:18.024Z,100.00
2023-02-16T05:16:44.770Z,100.00
2023-02-16T05:19:11.427Z,100.00
2023-02-16T05:21:38.016Z,100.00
2023-02-16T05:24:08.810Z,100.00
2023-02-16T05:26:35.533Z,100.00
2023-02-16T05:29:02.066Z,100.00
2023-02-16T05:31:29.071Z,100.00
2023-02-16T05:33:55.758Z,100.00
2023-02-16T05:36:22.397Z,100.00
2023-02-16T05:38:48.888Z,100.00
2023-02-16T05:41:23.495Z,100.00
2023-02-16T05:43:54.213Z,100.00
2023-02-16T05:46:21.652Z,100.00
2023-02-16T05:48:48.211Z,100.00
2023-02-16T05:51:14.739Z,100.00
2023-02-16T05:53:41.309Z,100.00
2023-02-16T05:56:07.816Z,100.00
2023-02-16T05:58:34.339Z,100.00
2023-02-16T06:01:01.138Z,100.00
2023-02-16T06:03:27.781Z,100.00
2023-02-16T06:05:55.254Z,100.00
2023-02-16T06:08:21.722Z,100.00
2023-02-16T06:10:51.619Z,100.00
2023-02-16T06:13:18.133Z,100.00
2023-02-16T06:15:44.718Z,100.00
2023-02-16T06:18:11.593Z,100.00
2023-02-16T06:20:38.786Z,100.00
2023-02-16T06:23:06.438Z,100.00
2023-02-16T06:25:32.966Z,100.00
2023-02-16T06:27:59.449Z,100.00
2023-02-16T06:30:26.481Z,100.00
2023-02-16T06:32:52.968Z,100.00
2023-02-16T06:35:20.008Z,100.00
2023-02-16T06:37:46.490Z,100.00
2023-02-16T06:40:17.367Z,100.00
2023-02-16T06:42:44.138Z,100.00
2023-02-16T06:45:10.607Z,100.00
2023-02-16T06:47:37.457Z,100.00
2023-02-16T06:50:05.396Z,100.00
2023-02-16T06:52:31.914Z,100.00
2023-02-16T06:54:58.728Z,100.00
2023-02-16T06:57:25.213Z,100.00
2023-02-16T06:59:51.716Z,100.00
2023-02-16T07:02:18.207Z,100.00
2023-02-16T07:04:44.937Z,100.00
2023-02-16T07:07:11.421Z,100.00
2023-02-16T07:09:37.910Z,100.00
2023-02-16T07:12:04.964Z,100.00
2023-02-16T07:14:31.794Z,100.00
2023-02-16T07:17:00.240Z,100.00
2023-02-16T07:19:26.907Z,100.00
2023-02-16T07:21:55.197Z,100.00
2023-02-16T07:24:21.977Z,100.00
2023-02-16T07:26:49.358Z,100.00
2023-02-16T07:29:15.837Z,100.00
2023-02-16T07:31:42.474Z,100.00
2023-02-16T07:34:09.070Z,100.00
2023-02-16T07:36:35.577Z,100.00
2023-02-16T07:39:02.084Z,100.00
2023-02-16T07:41:28.563Z,100.00
2023-02-16T07:43:55.104Z,100.00
2023-02-16T07:46:21.577Z,100.00
2023-02-16T07:48:48.998Z,100.00
2023-02-16T07:51:23.108Z,100.00
2023-02-16T07:53:49.628Z,100.00
2023-02-16T07:56:29.081Z,100.00
2023-02-16T07:58:56.239Z,100.00
2023-02-16T08:01:25.606Z,100.00
2023-02-16T08:03:59.918Z,100.00
2023-02-16T08:06:26.998Z,100.00
2023-02-16T08:08:53.528Z,100.00
2023-02-16T08:11:24.329Z,100.00
2023-02-16T08:13:50.859Z,100.00
2023-02-16T08:16:25.683Z,100.00
2023-02-16T08:18:52.381Z,100.00
2023-02-16T08:21:23.552Z,100.00
2023-02-16T08:23:58.212Z,100.00
2023-02-16T08:26:26.918Z,100.00
2023-02-16T08:28:53.691Z,100.00
2023-02-16T08:31:21.435Z,100.00
2023-02-16T08:33:48.061Z,100.00
2023-02-16T08:36:19.249Z,100.00
2023-02-16T08:38:45.858Z,100.00
2023-02-16T08:41:12.339Z,100.00
2023-02-16T08:43:38.832Z,100.00
2023-02-16T08:46:08.096Z,100.00
2023-02-16T08:48:35.612Z,100.00
2023-02-16T08:51:03.207Z,100.00
2023-02-16T08:53:33.885Z,100.00
2023-02-16T08:56:03.216Z,100.00
2023-02-16T08:58:30.704Z,100.00
2023-02-16T09:00:57.385Z,100.00
2023-02-16T09:03:24.692Z,100.00
2023-02-16T09:05:52.846Z,100.00
2023-02-16T09:08:19.577Z,100.00
2023-02-16T09:10:46.049Z,100.00
2023-02-16T09:13:15.947Z,100.00
2023-02-16T09:15:43.351Z,100.00
2023-02-16T09:18:10.910Z,100.00
2023-02-16T09:20:39.290Z,100.00
2023-02-16T09:23:06.308Z,100.00
2023-02-16T09:25:39.592Z,100.00
2023-02-16T09:28:06.451Z,100.00
2023-02-16T09:30:33.134Z,100.00
2023-02-16T09:33:00.098Z,100.00
2023-02-16T09:35:26.697Z,100.00
2023-02-16T09:37:53.922Z,100.00
2023-02-16T09:40:20.932Z,100.00
2023-02-16T09:43:02.847Z,100.00
2023-02-16T09:45:29.765Z,100.00
2023-02-16T09:47:56.586Z,100.00
2023-02-16T09:50:52.197Z,100.00
2023-02-16T09:53:29.823Z,100.00
2023-02-16T09:56:03.236Z,100.00
2023-02-16T09:58:47.967Z,100.00
2023-02-16T10:01:24.663Z,100.00
2023-02-16T10:03:55.716Z,100.00
2023-02-16T10:06:36.588Z,100.00
2023-02-16T10:09:08.177Z,100.00
2023-02-16T10:11:51.438Z,100.00
2023-02-16T10:14:32.485Z,100.00
2023-02-16T10:17:12.450Z,100.00
2023-02-16T10:19:57.580Z,100.00
2023-02-16T10:22:31.205Z,100.00
2023-02-16T10:24:59.248Z,100.00
2023-02-16T10:27:26.835Z,100.00
2023-02-16T10:29:53.407Z,100.00
2023-02-16T10:32:23.244Z,100.00
2023-02-16T10:34:51.002Z,100.00
2023-02-16T10:37:53.023Z,100.00
2023-02-16T10:40:36.746Z,100.00
2023-02-16T10:43:24.377Z,100.00
2023-02-16T10:45:54.920Z,100.00
2023-02-16T10:48:21.730Z,100.00
2023-02-16T10:51:01.239Z,100.00
2023-02-16T10:53:38.017Z,100.00
2023-02-16T10:56:43.465Z,100.00
2023-02-16T10:59:42.225Z,100.00
2023-02-16T11:02:17.030Z,100.00
2023-02-16T11:04:44.799Z,100.00
2023-02-16T11:07:18.799Z,100.00
2023-02-16T11:09:46.957Z,100.00
2023-02-16T11:12:23.477Z,100.00
2023-02-16T11:14:51.480Z,100.00
2023-02-16T11:17:18.601Z,100.00
2023-02-16T11:20:05.791Z,100.00
2023-02-16T11:22:37.280Z,100.00
2023-02-16T11:25:25.168Z,100.00
2023-02-16T11:28:08.212Z,100.00
2023-02-16T11:30:36.386Z,100.00
2023-02-16T11:33:04.692Z,100.00
2023-02-16T11:35:32.829Z,100.00
2023-02-16T11:37:59.847Z,100.00
2023-02-16T11:40:28.872Z,100.00
2023-02-16T11:42:57.372Z,100.00
2023-02-16T11:45:34.581Z,100.00
2023-02-16T11:48:03.409Z,100.00
2023-02-16T11:50:31.633Z,100.00
2023-02-16T11:53:25.241Z,100.00
2023-02-16T11:55:52.986Z,100.00
2023-02-16T11:58:27.474Z,100.00
2023-02-16T12:01:12.118Z,100.00
2023-02-16T12:04:12.828Z,100.00
2023-02-16T12:06:43.184Z,100.00
2023-02-16T12:09:19.685Z,100.00
2023-02-16T12:11:45.984Z,100.00
2023-02-16T12:14:37.331Z,100.00
2023-02-16T12:17:17.335Z,100.00
2023-02-16T12:19:48.760Z,100.00
2023-02-16T12:22:42.435Z,100.00
2023-02-16T12:25:40.447Z,100.00
2023-02-16T12:28:23.208Z,100.00
2023-02-16T12:31:28.738Z,100.00
2023-02-16T12:37:03.563Z,100.00
2023-02-16T12:39:33.334Z,100.00
2023-02-16T12:42:24.677Z,100.00
2023-02-16T12:44:53.775Z,100.00
2023-02-16T12:47:32.845Z,100.00
2023-02-16T12:50:22.511Z,100.00
2023-02-16T12:52:53.173Z,100.00
2023-02-16T12:55:56.600Z,100.00
2023-02-16T12:58:37.778Z,100.00
2023-02-16T13:01:18.873Z,100.00
2023-02-16T13:04:18.522Z,100.00
2023-02-16T13:07:02.918Z,100.00
2023-02-16T13:09:44.212Z,100.00
2023-02-16T13:12:37.117Z,100.00
2023-02-16T13:15:23.465Z,100.00
2023-02-16T13:17:57.845Z,100.00
2023-02-16T13:20:24.428Z,100.00
2023-02-16T13:23:02.465Z,100.00
2023-02-16T13:25:53.768Z,100.00
2023-02-16T13:28:32.998Z,100.00
2023-02-16T13:31:04.701Z,100.00
2023-02-16T13:33:44.159Z,100.00
2023-02-16T13:36:39.021Z,100.00
2023-02-16T13:39:23.795Z,100.00
2023-02-16T13:42:02.294Z,99.42
2023-02-16T13:44:35.576Z,98.11
2023-02-16T13:47:02.233Z,98.46
2023-02-16T13:49:42.444Z,98.49
2023-02-16T13:52:10.607Z,98.05
2023-02-16T13:54:40.471Z,98.98
2023-02-16T13:57:13.947Z,99.13
2023-02-16T13:59:40.445Z,99.12
2023-02-16T14:02:13.194Z,98.60
2023-02-16T14:04:39.662Z,98.44
2023-02-16T14:07:09.673Z,97.80
2023-02-16T14:09:38.821Z,97.73
2023-02-16T14:12:11.606Z,97.50
2023-02-16T14:14:43.952Z,97.73
2023-02-16T14:17:19.560Z,97.49
2023-02-16T14:20:25.872Z,97.93
2023-02-16T14:22:53.649Z,97.27
2023-02-16T14:25:20.253Z,96.98
2023-02-16T14:27:54.497Z,98.29
2023-02-16T14:30:35.476Z,98.00
2023-02-16T14:33:17.354Z,98.41
2023-02-16T14:36:04.336Z,98.98
2023-02-16T14:38:37.740Z,97.97
2023-02-16T14:41:06.405Z,98.97
2023-02-16T14:43:42.565Z,98.37
2023-02-16T14:46:20.923Z,98.27
2023-02-16T14:49:13.070Z,98.39
2023-02-16T14:51:57.051Z,99.00
2023-02-16T14:54:55.957Z,99.57
2023-02-16T14:57:31.510Z,99.75
2023-02-16T15:00:23.587Z,100.00
2023-02-16T15:02:56.040Z,100.00
2023-02-16T15:05:32.409Z,100.00
2023-02-16T15:08:09.456Z,100.00
2023-02-16T15:10:37.229Z,100.00
2023-02-16T15:13:03.728Z,100.00
2023-02-16T15:15:45.131Z,100.00
2023-02-16T15:18:16.344Z,100.00
2023-02-16T15:20:43.913Z,100.00
2023-02-16T15:23:21.548Z,100.00
2023-02-16T15:25:59.314Z,100.00
2023-02-16T15:28:27.936Z,100.00
2023-02-16T15:30:56.538Z,100.00
2023-02-16T15:33:23.049Z,100.00
2023-02-16T15:35:59.187Z,100.00
2023-02-16T15:38:26.882Z,100.00
2023-02-16T15:40:57.380Z,100.00
2023-02-16T15:43:33.033Z,100.00
2023-02-16T15:46:01.013Z,100.00
2023-02-16T15:48:34.858Z,100.00
2023-02-16T15:51:06.945Z,100.00
2023-02-16T15:53:36.856Z,100.00
2023-02-16T15:56:05.635Z,100.00
2023-02-16T15:58:32.904Z,100.00
2023-02-16T16:01:00.466Z,100.00
2023-02-16T16:03:26.953Z,100.00
2023-02-16T16:05:58.165Z,100.00
2023-02-16T16:08:25.516Z,100.00
2023-02-16T16:10:52.064Z,100.00
2023-02-16T16:13:20.632Z,100.00
2023-02-16T16:15:48.771Z,100.00
2023-02-16T16:18:40.440Z,100.00
2023-02-16T16:21:18.162Z,100.00
2023-02-16T16:23:57.974Z,100.00
2023-02-16T16:26:24.478Z,100.00
2023-02-16T16:28:51.524Z,100.00
2023-02-16T16:31:21.075Z,100.00
2023-02-16T16:33:58.719Z,100.00
2023-02-16T16:36:40.329Z,100.00
2023-02-16T16:39:16.790Z,100.00
2023-02-16T16:41:55.361Z,100.00
2023-02-16T16:44:39.092Z,100.00
2023-02-16T16:47:31.541Z,100.00
2023-02-16T16:50:05.147Z,100.00
2023-02-16T16:52:33.567Z,100.00
2023-02-16T16:55:00.050Z,100.00
2023-02-16T16:57:26.554Z,100.00
2023-02-16T16:59:53.119Z,100.00
2023-02-16T17:02:19.592Z,100.00
2023-02-16T17:04:46.085Z,100.00
2023-02-16T17:07:12.569Z,100.00
2023-02-16T17:09:39.301Z,100.00
2023-02-16T17:12:06.154Z,100.00
2023-02-16T17:14:32.643Z,100.00
2023-02-16T17:16:59.391Z,100.00
2023-02-16T17:19:29.326Z,100.00
2023-02-16T17:21:55.843Z,100.00
2023-02-16T17:24:22.370Z,100.00
2023-02-16T17:26:50.061Z,100.00
2023-02-16T17:29:19.805Z,100.00
2023-02-16T17:31:46.437Z,100.00
2023-02-16T17:34:13.415Z,100.00
2023-02-16T17:36:40.134Z,100.00
2023-02-16T17:39:08.331Z,100.00
2023-02-16T17:41:34.800Z,100.00
2023-02-16T17:44:01.351Z,100.00
2023-02-16T17:46:28.627Z,100.00
2023-02-16T17:48:55.306Z,100.00
2023-02-16T17:51:23.516Z,100.00
2023-02-16T17:53:50.003Z,100.00
2023-02-16T17:56:17.737Z,100.00
2023-02-16T17:58:44.723Z,100.00
2023-02-16T18:01:13.101Z,100.00
2023-02-16T18:03:39.604Z,100.00
2023-02-16T18:06:06.724Z,100.00
2023-02-16T18:08:33.689Z,100.00
2023-02-16T18:11:02.096Z,100.00
2023-02-16T18:13:29.328Z,100.00
2023-02-16T18:15:55.859Z,100.00
2023-02-16T18:18:22.332Z,100.00
2023-02-16T18:20:48.807Z,100.00
2023-02-16T18:23:15.374Z,100.00
2023-02-16T18:25:43.894Z,100.00
2023-02-16T18:28:14.689Z,100.00
2023-02-16T18:30:41.609Z,100.00
2023-02-16T18:33:08.441Z,100.00
2023-02-16T18:35:34.907Z,100.00
2023-02-16T18:38:01.378Z,100.00
2023-02-16T18:40:27.876Z,100.00
2023-02-16T18:42:54.603Z,100.00
2023-02-16T18:45:21.085Z,100.00
2023-02-16T18:47:48.023Z,100.00
2023-02-16T18:50:17.954Z,100.00
2023-02-16T18:52:47.690Z,100.00
2023-02-16T18:55:15.646Z,100.00
2023-02-16T18:57:42.472Z,100.00
2023-02-16T19:00:10.246Z,100.00
2023-02-16T19:02:37.704Z,100.00
2023-02-16T19:05:04.712Z,100.00
2023-02-16T19:07:32.113Z,100.00
2023-02-16T19:09:58.713Z,100.00
2023-02-16T19:12:25.607Z,100.00
2023-02-16T19:14:52.073Z,100.00
2023-02-16T19:17:23.444Z,100.00
2023-02-16T19:19:49.980Z,100.00
2023-02-16T19:22:16.507Z,100.00
2023-02-16T19:24:43.004Z,100.00
2023-02-16T19:27:09.813Z,100.00
2023-02-16T19:29:36.306Z,100.00
2023-02-16T19:32:02.866Z,100.00
2023-02-16T19:34:29.371Z,100.00
2023-02-16T19:36:55.853Z,100.00
2023-02-16T19:39:22.554Z,100.00
2023-02-16T19:41:49.047Z,100.00
2023-02-16T19:44:15.571Z,100.00
2023-02-16T19:46:42.142Z,100.00
2023-02-16T19:49:08.729Z,100.00
2023-02-16T19:51:35.278Z,100.00
2023-02-16T19:54:02.399Z,100.00
2023-02-16T19:56:28.906Z,100.00
2023-02-16T19:58:57.199Z,100.00
2023-02-16T20:01:24.555Z,100.00
2023-02-16T20:03:51.653Z,100.00
2023-02-16T20:06:27.132Z,100.00
2023-02-16T20:08:54.209Z,100.00
2023-02-16T20:11:21.707Z,100.00
2023-02-16T20:13:48.406Z,100.00
2023-02-16T20:16:15.640Z,100.00
2023-02-16T20:18:42.207Z,100.00
2023-02-16T20:21:11.248Z,100.00
2023-02-16T20:23:37.745Z,100.00
2023-02-16T20:26:06.328Z,100.00
2023-02-16T20:28:33.020Z,100.00
2023-02-16T20:30:59.515Z,100.00
2023-02-16T20:33:26.122Z,100.00
2023-02-16T20:35:52.902Z,100.00
2023-02-16T20:38:19.357Z,100.00
2023-02-16T20:40:45.850Z,100.00
2023-02-16T20:43:13.291Z,100.00
2023-02-16T20:45:42.311Z,100.00
2023-02-16T20:48:09.362Z,100.00
2023-02-16T20:50:36.306Z,100.00
2023-02-16T20:53:02.780Z,100.00
2023-02-16T20:55:29.568Z,100.00
2023-02-16T20:57:56.192Z,100.00
2023-02-16T21:00:24.031Z,100.00
2023-02-16T21:02:50.711Z,100.00
2023-02-16T21:05:17.392Z,100.00
2023-02-16T21:07:43.874Z,100.00
2023-02-16T21:10:11.088Z,100.00
2023-02-16T21:12:37.554Z,100.00
2023-02-16T21:15:04.622Z,100.00
2023-02-16T21:17:31.152Z,100.00
2023-02-16T21:19:57.771Z,100.00
2023-02-16T21:22:27.343Z,100.00
2023-02-16T21:24:54.258Z,100.00
2023-02-16T21:27:20.873Z,100.00
2023-02-16T21:29:47.365Z,100.00
2023-02-16T21:32:13.973Z,100.00
2023-02-16T21:34:40.508Z,100.00
2023-02-16T21:37:07.303Z,100.00
2023-02-16T21:39:52.511Z,100.00
2023-02-16T21:42:18.998Z,100.00
2023-02-16T21:44:49.920Z,100.00
2023-02-16T21:47:35.422Z,100.00
2023-02-16T21:50:01.894Z,100.00
2023-02-16T21:52:28.378Z,100.00
2023-02-16T21:55:13.792Z,100.00
2023-02-16T21:57:40.298Z,100.00
2023-02-16T22:00:10.427Z,100.00
2023-02-16T22:02:36.997Z,100.00
2023-02-16T22:05:03.493Z,100.00
2023-02-16T22:07:29.982Z,100.00
2023-02-16T22:09:56.510Z,100.00
2023-02-16T22:12:23.058Z,100.00
2023-02-16T22:14:49.632Z,100.00
2023-02-16T22:17:16.132Z,100.00
2023-02-16T22:19:42.608Z,100.00
2023-02-16T22:22:09.754Z,100.00
2023-02-16T22:24:38.341Z,100.00
2023-02-16T22:27:04.964Z,100.00
2023-02-16T22:29:31.501Z,100.00
2023-02-16T22:31:58.053Z,100.00
2023-02-16T22:34:24.544Z,100.00
2023-02-16T22:36:51.040Z,100.00
2023-02-16T22:39:17.848Z,100.00
2023-02-16T22:41:44.354Z,100.00
2023-02-16T22:44:11.402Z,100.00
2023-02-16T22:46:37.907Z,100.00
2023-02-16T22:49:04.360Z,100.00
2023-02-16T22:51:30.946Z,100.00
2023-02-16T22:53:57.995Z,100.00
2023-02-16T22:56:26.763Z,100.00
2023-02-16T22:58:54.215Z,100.00
2023-02-16T23:01:22.174Z,100.00
2023-02-16T23:03:53.430Z,100.00
2023-02-16T23:06:21.484Z,100.00
2023-02-16T23:08:52.123Z,100.00
2023-02-16T23:11:18.721Z,100.00
2023-02-16T23:13:45.446Z,100.00
2023-02-16T23:16:13.884Z,100.00
2023-02-16T23:18:41.108Z,100.00
2023-02-16T23:21:30.807Z,100.00
2023-02-16T23:23:57.642Z,100.00
2023-02-16T23:26:25.311Z,100.00
2023-02-16T23:28:52.786Z,100.00
2023-02-16T23:31:19.354Z,100.00
2023-02-16T23:33:45.923Z,100.00
2023-02-16T23:36:12.386Z,100.00
2023-02-16T23:38:38.847Z,100.00
2023-02-16T23:41:07.028Z,100.00
2023-02-16T23:43:33.530Z,100.00
2023-02-16T23:46:00.287Z,100.00
2023-02-16T23:48:26.790Z,100.00
2023-02-16T23:50:53.366Z,100.00
2023-02-16T23:53:20.502Z,100.00
2023-02-16T23:56:22.905Z,100.00
2023-02-16T23:58:49.476Z,100.00
